createdAt,value
2022-11-05T00:00:35.028Z,27.38
2022-11-05T00:06:21.852Z,28.38
2022-11-05T00:09:08.722Z,28.52
2022-11-05T00:11:54.882Z,29.15
2022-11-05T00:14:43.731Z,27.85
2022-11-05T00:17:11.519Z,28.65
2022-11-05T00:19:40.533Z,27.00
2022-11-05T00:22:27.213Z,28.00
2022-11-05T00:25:14.005Z,26.02
2022-11-05T00:27:50.431Z,30.05
2022-11-05T00:30:21.522Z,28.17
2022-11-05T00:32:50.061Z,30.55
2022-11-05T00:35:20.015Z,31.35
2022-11-05T00:37:50.347Z,32.38
2022-11-05T00:40:18.969Z,29.73
2022-11-05T00:43:05.710Z,29.80
2022-11-05T00:48:20.209Z,28.92
2022-11-05T00:53:16.700Z,30.33
2022-11-05T00:55:45.436Z,32.03
2022-11-05T00:58:20.519Z,29.10
2022-11-05T01:00:54.035Z,26.42
2022-11-05T01:03:23.475Z,28.33
2022-11-05T01:05:53.752Z,28.67
2022-11-05T01:08:27.941Z,26.52
2022-11-05T01:10:58.077Z,29.50
2022-11-05T01:13:27.471Z,33.42
2022-11-05T01:15:57.116Z,32.33
2022-11-05T01:18:25.788Z,31.27
2022-11-05T01:20:53.704Z,32.53
2022-11-05T01:23:21.745Z,32.80
2022-11-05T01:25:50.145Z,31.88
2022-11-05T01:28:17.945Z,32.22
2022-11-05T01:30:46.373Z,30.92
2022-11-05T01:33:14.464Z,32.40
2022-11-05T01:35:42.909Z,32.15
2022-11-05T01:38:10.746Z,31.30
2022-11-05T01:40:38.835Z,31.58
2022-11-05T01:43:17.227Z,31.98
2022-11-05T01:45:49.820Z,30.65
2022-11-05T01:48:21.347Z,30.15
2022-11-05T01:50:59.478Z,31.63
2022-11-05T01:53:57.721Z,32.10
2022-11-05T01:56:28.986Z,30.88
2022-11-05T01:59:08.365Z,31.45
2022-11-05T02:01:39.877Z,30.92
2022-11-05T02:04:10.247Z,30.25
2022-11-05T02:06:46.069Z,30.30
2022-11-05T02:09:21.125Z,28.23
2022-11-05T02:11:53.631Z,30.20
2022-11-05T02:14:21.891Z,29.50
2022-11-05T02:17:04.156Z,29.42
2022-11-05T02:19:48.940Z,29.73
2022-11-05T02:22:46.553Z,27.63
2022-11-05T02:25:53.867Z,27.00
2022-11-05T02:31:29.128Z,27.27
2022-11-05T02:34:14.975Z,24.20
2022-11-05T02:36:56.361Z,24.42
2022-11-05T02:39:54.918Z,25.23
2022-11-05T02:42:55.166Z,24.50
2022-11-05T02:45:52.166Z,23.40
2022-11-05T02:48:25.829Z,23.00
2022-11-05T02:50:54.960Z,23.70
2022-11-05T02:53:39.507Z,23.17
2022-11-05T02:56:17.164Z,24.60
2022-11-05T02:58:45.545Z,25.73
2022-11-05T03:01:13.809Z,25.70
2022-11-05T03:03:50.530Z,26.48
2022-11-05T03:09:11.590Z,26.85
2022-11-05T03:12:06.615Z,27.40
2022-11-05T03:15:03.272Z,27.30
2022-11-05T03:17:55.307Z,27.83
2022-11-05T03:20:50.223Z,28.42
2022-11-05T03:23:39.204Z,28.50
2022-11-05T03:26:19.989Z,28.92
2022-11-05T03:29:12.250Z,27.55
2022-11-05T03:31:40.380Z,26.33
2022-11-05T03:34:08.079Z,27.95
2022-11-05T03:36:41.258Z,28.15
2022-11-05T03:39:11.255Z,28.95
2022-11-05T03:41:43.301Z,30.42
2022-11-05T03:44:12.032Z,30.33
2022-11-05T03:46:47.638Z,28.85
2022-11-05T03:49:39.486Z,31.13
2022-11-05T03:52:07.169Z,30.00
2022-11-05T03:54:35.743Z,29.65
2022-11-05T03:57:11.041Z,30.63
2022-11-05T03:59:45.041Z,29.48
2022-11-05T04:02:14.959Z,29.13
2022-11-05T04:04:47.153Z,29.42
2022-11-05T04:07:34.366Z,28.70
2022-11-05T04:10:21.164Z,28.40
2022-11-05T04:13:07.863Z,29.30
2022-11-05T04:15:56.941Z,43.53
2022-11-05T04:18:24.762Z,31.10
2022-11-05T04:21:11.081Z,30.23
2022-11-05T04:23:57.919Z,31.60
2022-11-05T04:26:26.147Z,34.88
2022-11-05T04:29:12.913Z,32.75
2022-11-05T04:31:42.802Z,41.85
2022-11-05T04:34:11.193Z,44.22
2022-11-05T04:36:39.058Z,41.47
2022-11-05T04:39:07.628Z,39.42
2022-11-05T04:41:35.645Z,38.72
2022-11-05T04:44:03.562Z,39.03
2022-11-05T04:46:31.567Z,36.53
2022-11-05T04:48:59.379Z,35.97
2022-11-05T04:51:27.459Z,36.40
2022-11-05T04:53:55.487Z,35.63
2022-11-05T04:56:24.727Z,35.67
2022-11-05T04:58:52.753Z,36.38
2022-11-05T05:01:45.976Z,35.40
2022-11-05T05:04:14.665Z,35.65
2022-11-05T05:06:44.803Z,36.20
2022-11-05T05:09:13.370Z,35.13
2022-11-05T05:11:45.874Z,36.78
2022-11-05T05:14:13.659Z,35.78
2022-11-05T05:16:41.405Z,32.58
2022-11-05T05:19:09.810Z,36.90
2022-11-05T05:21:47.490Z,35.42
2022-11-05T05:24:18.874Z,33.95
2022-11-05T05:26:51.083Z,33.95
2022-11-05T05:29:19.116Z,31.67
2022-11-05T05:31:47.141Z,32.38
2022-11-05T05:34:15.718Z,34.55
2022-11-05T05:36:43.876Z,33.85
2022-11-05T05:39:15.289Z,31.65
2022-11-05T05:41:43.583Z,31.42
2022-11-05T05:44:11.584Z,29.55
2022-11-05T05:46:40.833Z,29.63
2022-11-05T05:49:12.493Z,29.85
2022-11-05T05:51:41.976Z,29.30
2022-11-05T05:54:13.594Z,28.20
2022-11-05T05:56:47.273Z,28.30
2022-11-05T05:59:21.924Z,25.92
2022-11-05T06:01:51.608Z,26.63
2022-11-05T06:04:19.623Z,24.73
2022-11-05T06:06:48.431Z,26.00
2022-11-05T06:09:19.430Z,25.75
2022-11-05T06:14:55.082Z,25.85
2022-11-05T06:17:24.127Z,26.33
2022-11-05T06:19:53.060Z,24.90
2022-11-05T06:22:21.879Z,26.45
2022-11-05T06:24:56.558Z,24.70
2022-11-05T06:27:44.788Z,25.90
2022-11-05T06:30:13.655Z,25.35
2022-11-05T06:32:44.555Z,25.40
2022-11-05T06:35:12.569Z,25.63
2022-11-05T06:37:41.326Z,25.30
2022-11-05T06:40:10.929Z,24.52
2022-11-05T06:42:40.383Z,25.40
2022-11-05T06:45:10.333Z,24.27
2022-11-05T06:47:41.504Z,24.95
2022-11-05T06:50:13.344Z,27.42
2022-11-05T06:53:03.135Z,24.20
2022-11-05T06:55:31.446Z,24.67
2022-11-05T06:58:09.262Z,24.17
2022-11-05T07:00:45.835Z,23.10
2022-11-05T07:03:27.982Z,24.10
2022-11-05T07:06:07.464Z,24.35
2022-11-05T07:08:40.856Z,23.35
2022-11-05T07:11:10.003Z,26.27
2022-11-05T07:13:39.195Z,23.85
2022-11-05T07:16:09.502Z,25.90
2022-11-05T07:18:39.233Z,24.63
2022-11-05T07:21:29.203Z,27.65
2022-11-05T07:23:57.569Z,24.45
2022-11-05T07:26:33.371Z,24.95
2022-11-05T07:29:02.577Z,24.93
2022-11-05T07:31:30.851Z,24.13
2022-11-05T07:33:59.907Z,24.77
2022-11-05T07:36:27.832Z,23.52
2022-11-05T07:39:18.408Z,23.23
2022-11-05T07:41:49.137Z,22.35
2022-11-05T07:44:20.214Z,22.65
2022-11-05T07:46:52.407Z,21.70
2022-11-05T07:49:41.065Z,21.60
2022-11-05T07:52:11.001Z,23.05
2022-11-05T07:54:48.730Z,21.52
2022-11-05T07:57:29.391Z,21.92
2022-11-05T07:59:57.862Z,20.88
2022-11-05T08:06:18.514Z,21.15
2022-11-05T08:08:49.503Z,18.98
2022-11-05T08:11:19.273Z,17.48
2022-11-05T08:14:04.112Z,17.42
2022-11-05T08:16:33.982Z,17.58
2022-11-05T08:19:17.272Z,17.20
2022-11-05T08:21:54.416Z,17.38
2022-11-05T08:25:06.464Z,19.17
2022-11-05T08:27:39.313Z,18.75
2022-11-05T08:30:35.949Z,18.27
2022-11-05T08:33:16.159Z,16.90
2022-11-05T08:35:46.176Z,17.70
2022-11-05T08:38:16.078Z,18.27
2022-11-05T08:40:45.584Z,18.38
2022-11-05T08:43:18.445Z,18.83
2022-11-05T08:45:47.424Z,17.50
2022-11-05T08:48:17.862Z,23.45
2022-11-05T08:51:18.593Z,18.23
2022-11-05T08:53:46.991Z,18.20
2022-11-05T08:56:21.846Z,18.77
2022-11-05T08:59:09.773Z,19.48
2022-11-05T09:01:42.718Z,18.67
2022-11-05T09:04:11.668Z,18.80
2022-11-05T09:06:43.129Z,17.85
2022-11-05T09:09:23.238Z,19.45
2022-11-05T09:12:12.333Z,17.73
2022-11-05T09:14:41.978Z,18.17
2022-11-05T09:17:23.918Z,18.60
2022-11-05T09:20:00.122Z,18.60
2022-11-05T09:22:49.401Z,17.08
2022-11-05T09:25:19.150Z,17.83
2022-11-05T09:27:49.043Z,19.70
2022-11-05T09:30:19.069Z,17.77
2022-11-05T09:32:52.357Z,18.83
2022-11-05T09:35:21.841Z,20.50
2022-11-05T09:37:50.978Z,18.27
2022-11-05T09:40:20.320Z,18.83
2022-11-05T09:42:52.508Z,18.85
2022-11-05T09:45:21.634Z,18.75
2022-11-05T09:47:54.154Z,17.73
2022-11-05T09:50:33.719Z,17.58
2022-11-05T09:53:24.673Z,15.13
2022-11-05T09:55:58.303Z,17.33
2022-11-05T09:58:37.733Z,14.82
2022-11-05T10:01:11.484Z,12.65
2022-11-05T10:03:45.538Z,13.95
2022-11-05T10:06:21.633Z,9.75
2022-11-05T10:09:21.222Z,12.70
2022-11-05T10:11:56.774Z,12.82
2022-11-05T10:14:27.575Z,13.13
2022-11-05T10:17:16.406Z,13.07
2022-11-05T10:20:39.115Z,14.45
2022-11-05T10:23:28.070Z,19.70
2022-11-05T10:26:02.247Z,15.55
2022-11-05T10:28:32.355Z,15.68
2022-11-05T10:31:05.948Z,16.55
2022-11-05T10:36:43.399Z,15.63
2022-11-05T10:39:15.932Z,14.48
2022-11-05T10:42:17.934Z,16.45
2022-11-05T10:44:59.597Z,16.35
2022-11-05T10:47:43.071Z,15.52
2022-11-05T10:50:20.877Z,17.80
2022-11-05T10:53:00.660Z,17.05
2022-11-05T10:55:30.127Z,18.15
2022-11-05T10:58:29.511Z,16.30
2022-11-05T11:01:18.596Z,16.95
2022-11-05T11:03:49.690Z,17.42
2022-11-05T11:06:25.284Z,23.40
2022-11-05T11:09:01.704Z,15.70
2022-11-05T11:11:41.215Z,16.25
2022-11-05T11:14:16.467Z,16.25
2022-11-05T11:16:53.026Z,16.73
2022-11-05T11:19:22.212Z,15.57
2022-11-05T11:22:16.343Z,16.48
2022-11-05T11:24:51.990Z,15.15
2022-11-05T11:27:36.227Z,15.68
2022-11-05T11:30:05.765Z,16.90
2022-11-05T11:32:37.707Z,14.68
2022-11-05T11:35:22.524Z,15.18
2022-11-05T11:37:57.796Z,15.20
2022-11-05T11:40:49.333Z,13.00
2022-11-05T11:49:31.769Z,13.35
2022-11-05T11:52:26.424Z,11.25
2022-11-05T11:55:30.903Z,10.60
2022-11-05T11:58:14.310Z,11.38
2022-11-05T12:00:51.339Z,10.90
2022-11-05T12:03:35.023Z,12.45
2022-11-05T12:06:25.456Z,12.35
2022-11-05T12:09:11.248Z,10.93
2022-11-05T12:12:04.794Z,10.25
2022-11-05T12:14:49.074Z,11.27
2022-11-05T12:17:39.618Z,11.40
2022-11-05T12:20:25.810Z,9.98
2022-11-05T12:32:03.666Z,10.05
2022-11-05T12:35:09.934Z,10.00
2022-11-05T12:38:00.288Z,10.30
2022-11-05T12:40:56.415Z,8.95
2022-11-05T12:43:35.346Z,10.20
2022-11-05T12:46:45.969Z,10.02
2022-11-05T12:49:42.439Z,9.70
2022-11-05T12:53:08.733Z,9.40
2022-11-05T12:55:45.520Z,8.63
2022-11-05T12:58:22.664Z,9.57
2022-11-05T13:01:11.804Z,9.05
2022-11-05T13:03:44.519Z,8.63
2022-11-05T13:06:41.141Z,8.70
2022-11-05T13:09:24.868Z,9.57
2022-11-05T13:12:21.093Z,9.88
2022-11-05T13:15:00.212Z,9.52
2022-11-05T13:17:53.810Z,10.55
2022-11-05T13:20:24.555Z,9.90
2022-11-05T13:23:28.681Z,10.38
2022-11-05T13:26:24.837Z,10.70
2022-11-05T13:29:50.006Z,10.47
2022-11-05T13:32:33.773Z,10.90
2022-11-05T13:35:03.196Z,11.20
2022-11-05T13:38:00.303Z,10.93
2022-11-05T13:40:58.014Z,11.27
2022-11-05T13:43:44.854Z,11.13
2022-11-05T13:46:25.664Z,11.00
2022-11-05T13:49:16.667Z,11.75
2022-11-05T13:51:52.113Z,11.90
2022-11-05T13:54:35.457Z,12.13
2022-11-05T13:57:30.194Z,13.18
2022-11-05T14:00:24.224Z,13.88
2022-11-05T14:03:04.169Z,14.52
2022-11-05T14:05:37.285Z,14.90
2022-11-05T14:08:22.592Z,16.10
2022-11-05T14:11:29.134Z,15.13
2022-11-05T14:14:02.053Z,15.60
2022-11-05T14:17:03.411Z,16.05
2022-11-05T14:20:02.851Z,16.45
2022-11-05T14:22:34.034Z,16.20
2022-11-05T14:25:27.969Z,16.30
2022-11-05T14:27:59.382Z,16.48
2022-11-05T14:30:47.570Z,17.23
2022-11-05T14:33:30.864Z,17.67
2022-11-05T14:36:23.331Z,17.55
2022-11-05T14:38:53.272Z,17.33
2022-11-05T14:41:21.437Z,19.17
2022-11-05T14:44:25.437Z,19.35
2022-11-05T14:47:03.888Z,20.23
2022-11-05T14:49:53.131Z,20.35
2022-11-05T14:52:22.339Z,19.23
2022-11-05T14:54:56.019Z,19.13
2022-11-05T14:57:44.574Z,19.17
2022-11-05T15:00:41.075Z,21.10
2022-11-05T15:03:54.114Z,20.20
2022-11-05T15:06:36.938Z,20.85
2022-11-05T15:09:13.452Z,21.45
2022-11-05T15:11:48.744Z,20.40
2022-11-05T15:14:24.807Z,18.38
2022-11-05T15:17:06.030Z,19.35
2022-11-05T15:19:37.415Z,18.60
2022-11-05T15:22:14.351Z,20.95
2022-11-05T15:24:45.004Z,20.77
2022-11-05T15:27:33.518Z,20.42
2022-11-05T15:30:21.858Z,21.60
2022-11-05T15:32:50.916Z,21.73
2022-11-05T15:35:21.559Z,21.50
2022-11-05T15:37:55.979Z,18.60
2022-11-05T15:40:29.210Z,19.15
2022-11-05T15:43:11.165Z,21.40
2022-11-05T15:45:40.222Z,18.67
2022-11-05T15:48:15.469Z,19.83
2022-11-05T15:50:44.977Z,19.73
2022-11-05T15:56:48.079Z,22.45
2022-11-05T15:59:21.362Z,20.60
2022-11-05T16:02:22.033Z,20.45
2022-11-05T16:04:51.773Z,20.23
2022-11-05T16:07:19.740Z,19.65
2022-11-05T16:09:59.137Z,19.48
2022-11-05T16:12:37.604Z,19.70
2022-11-05T16:15:10.294Z,18.05
2022-11-05T16:17:50.340Z,19.38
2022-11-05T16:20:19.614Z,19.77
2022-11-05T16:22:49.182Z,19.38
2022-11-05T16:25:38.156Z,20.20
2022-11-05T16:28:19.275Z,19.42
2022-11-05T16:30:53.984Z,20.45
2022-11-05T16:33:25.687Z,20.92
2022-11-05T16:36:00.484Z,23.00
2022-11-05T16:38:31.441Z,20.33
2022-11-05T16:41:02.716Z,18.45
2022-11-05T16:43:35.910Z,18.73
2022-11-05T16:46:07.415Z,18.60
2022-11-05T16:48:40.572Z,15.98
2022-11-05T16:51:12.413Z,17.30
2022-11-05T16:53:45.842Z,15.20
2022-11-05T16:56:23.249Z,14.45
2022-11-05T16:58:54.711Z,16.52
2022-11-05T17:01:25.633Z,16.52
2022-11-05T17:03:55.566Z,16.60
2022-11-05T17:06:26.527Z,16.92
2022-11-05T17:08:55.633Z,14.93
2022-11-05T17:11:24.485Z,16.40
2022-11-05T17:14:13.280Z,16.85
2022-11-05T17:16:48.110Z,16.20
2022-11-05T17:19:20.243Z,16.73
2022-11-05T17:21:50.284Z,15.02
2022-11-05T17:24:23.921Z,14.10
2022-11-05T17:26:53.263Z,14.18
2022-11-05T17:29:25.708Z,12.82
2022-11-05T17:31:57.768Z,13.82
2022-11-05T17:34:25.569Z,13.63
2022-11-05T17:36:56.476Z,13.02
2022-11-05T17:39:31.415Z,13.55
2022-11-05T17:42:02.389Z,14.55
2022-11-05T17:44:32.568Z,13.20
2022-11-05T17:47:00.705Z,13.63
2022-11-05T17:49:32.869Z,12.48
2022-11-05T17:52:02.193Z,11.93
2022-11-05T17:54:43.248Z,12.35
2022-11-05T18:00:58.303Z,12.05
2022-11-05T18:03:27.639Z,12.15
2022-11-05T18:06:21.944Z,11.45
2022-11-05T18:08:56.339Z,13.05
2022-11-05T18:11:31.015Z,11.38
2022-11-05T18:14:09.114Z,11.77
2022-11-05T18:17:00.427Z,11.35
2022-11-05T18:19:28.602Z,9.82
2022-11-05T18:21:57.888Z,10.57
2022-11-05T18:24:32.709Z,11.65
2022-11-05T18:27:02.613Z,11.90
2022-11-05T18:29:31.634Z,11.45
2022-11-05T18:32:09.934Z,11.63
2022-11-05T18:37:28.307Z,12.45
2022-11-05T18:39:56.283Z,10.68
2022-11-05T18:42:31.857Z,11.45
2022-11-05T18:45:01.442Z,15.43
2022-11-05T18:47:33.734Z,13.10
2022-11-05T18:50:05.940Z,13.15
2022-11-05T18:52:34.726Z,12.32
2022-11-05T18:55:03.000Z,13.10
2022-11-05T18:57:33.082Z,12.15
2022-11-05T19:00:10.997Z,13.32
2022-11-05T19:02:44.966Z,13.45
2022-11-05T19:05:28.654Z,13.95
2022-11-05T19:08:08.725Z,14.45
2022-11-05T19:10:41.666Z,15.65
2022-11-05T19:13:17.245Z,15.45
2022-11-05T19:15:47.865Z,15.30
2022-11-05T19:18:16.456Z,15.70
2022-11-05T19:21:04.872Z,15.02
2022-11-05T19:23:42.205Z,17.35
2022-11-05T19:26:35.247Z,16.17
2022-11-05T19:29:12.601Z,16.73
2022-11-05T19:31:54.379Z,15.15
2022-11-05T19:35:08.946Z,16.25
2022-11-05T19:37:51.034Z,15.95
2022-11-05T19:40:22.045Z,15.50
2022-11-05T19:42:51.728Z,18.05
2022-11-05T19:48:08.719Z,16.73
2022-11-05T19:50:45.920Z,16.70
2022-11-05T19:53:14.213Z,18.25
2022-11-05T19:55:51.908Z,16.67
2022-11-05T19:58:23.894Z,18.83
2022-11-05T20:00:52.543Z,18.10
2022-11-05T20:03:22.146Z,18.85
2022-11-05T20:05:51.998Z,20.05
2022-11-05T20:08:20.844Z,18.60
2022-11-05T20:10:55.142Z,20.38
2022-11-05T20:13:24.043Z,18.23
2022-11-05T20:16:22.071Z,20.98
2022-11-05T20:18:55.222Z,17.42
2022-11-05T20:21:25.831Z,18.48
2022-11-05T20:24:00.018Z,18.52
2022-11-05T20:26:29.961Z,17.23
2022-11-05T20:28:58.954Z,18.17
2022-11-05T20:31:27.147Z,17.83
2022-11-05T20:33:55.216Z,17.88
2022-11-05T20:36:25.963Z,18.45
2022-11-05T20:38:57.058Z,16.85
2022-11-05T20:41:25.553Z,19.10
2022-11-05T20:43:54.620Z,18.23
2022-11-05T20:46:23.086Z,18.48
2022-11-05T20:48:51.653Z,18.35
2022-11-05T20:51:21.199Z,18.75
2022-11-05T20:53:49.225Z,18.05
2022-11-05T20:56:31.183Z,17.50
2022-11-05T20:59:01.140Z,16.17
2022-11-05T21:01:32.465Z,17.33
2022-11-05T21:04:04.290Z,15.75
2022-11-05T21:06:36.082Z,17.08
2022-11-05T21:09:06.174Z,17.00
2022-11-05T21:12:19.621Z,16.77
2022-11-05T21:14:49.808Z,16.45
2022-11-05T21:17:17.780Z,15.35
2022-11-05T21:19:47.191Z,15.82
2022-11-05T21:22:17.148Z,15.73
2022-11-05T21:24:44.969Z,16.35
2022-11-05T21:27:14.862Z,14.88
2022-11-05T21:29:42.635Z,14.27
2022-11-05T21:32:11.794Z,14.27
2022-11-05T21:34:41.433Z,14.43
2022-11-05T21:37:09.403Z,15.05
2022-11-05T21:39:37.929Z,15.25
2022-11-05T21:42:07.982Z,15.10
2022-11-05T21:44:35.872Z,15.05
2022-11-05T21:47:04.849Z,15.35
2022-11-05T21:49:34.255Z,13.63
2022-11-05T21:52:21.075Z,14.23
2022-11-05T21:55:12.809Z,14.00
2022-11-05T21:57:59.988Z,14.02
2022-11-05T22:00:31.114Z,13.95
2022-11-05T22:03:02.320Z,14.48
2022-11-05T22:05:31.254Z,14.52
2022-11-05T22:07:59.669Z,13.20
2022-11-05T22:10:27.448Z,14.77
2022-11-05T22:13:03.435Z,14.18
2022-11-05T22:15:34.477Z,14.90
2022-11-05T22:18:26.011Z,14.75
2022-11-05T22:20:55.196Z,15.20
2022-11-05T22:23:25.012Z,13.90
2022-11-05T22:26:04.539Z,13.77
2022-11-05T22:28:32.819Z,13.07
2022-11-05T22:31:02.488Z,14.77
2022-11-05T22:33:33.470Z,13.40
2022-11-05T22:36:04.964Z,14.18
2022-11-05T22:38:46.460Z,12.30
2022-11-05T22:41:24.990Z,12.73
2022-11-05T22:43:52.865Z,13.07
2022-11-05T22:46:26.426Z,12.98
2022-11-05T22:48:54.320Z,14.02
2022-11-05T22:51:25.275Z,13.65
2022-11-05T22:53:57.481Z,14.35
2022-11-05T22:56:31.335Z,15.38
2022-11-05T22:59:03.581Z,15.13
2022-11-05T23:01:54.876Z,14.27
2022-11-05T23:04:23.306Z,14.90
2022-11-05T23:07:10.354Z,14.38
2022-11-05T23:09:59.473Z,15.07
2022-11-05T23:12:31.284Z,14.20
2022-11-05T23:15:01.636Z,15.73
2022-11-05T23:17:48.793Z,15.95
2022-11-05T23:20:38.464Z,14.45
2022-11-05T23:23:29.980Z,14.10
2022-11-05T23:26:21.404Z,13.50
2022-11-05T23:28:51.205Z,15.15
2022-11-05T23:31:38.175Z,15.73
2022-11-05T23:34:06.975Z,14.73
2022-11-05T23:36:54.598Z,15.73
2022-11-05T23:39:24.312Z,15.45
2022-11-05T23:42:11.100Z,14.60
2022-11-05T23:44:59.303Z,16.25
2022-11-05T23:47:47.269Z,16.15
2022-11-05T23:50:17.432Z,15.18
2022-11-05T23:52:46.066Z,15.05
2022-11-05T23:55:15.016Z,15.27
2022-11-05T23:57:45.874Z,14.93
